Martinsville, Virginia
Current Conditions -  °F | °C
As of 3:55 PM on Thursday 20 Nov 2014 (Local Time) from KMTV Reporting Station
Clear Clear  
Wind Chill: 54°   Ceiling: Unl
Heat Index: 54°   Visibility: 10mi
Dew Point: 19°   Wind: 13mph
Humidity: 26%   Direction: 250°WSW
Pressure: 30.03"   Gusts: 18mph
Location:  36.69°N, 79.87°W
Report Text: KMTV 202055Z AUTO 25011G16KT 220V290 10SM CLR 12/M07 A3003 RMK AO2 T01231070
Loading
Personal Weather Stations






























Interactive Weather Map New forecast layout! Learn more

10-Day Weather Forecast

Advertisements
Track Severe Weather on mobile